createdAt,value
2017-09-10T00:00:39.937Z,99145
2017-09-10T00:05:44.265Z,99147
2017-09-10T00:10:47.481Z,99135
2017-09-10T00:15:50.767Z,99147
2017-09-10T00:20:53.985Z,99155
2017-09-10T00:25:57.266Z,99166
2017-09-10T00:31:00.518Z,99176
2017-09-10T00:36:03.784Z,99174
2017-09-10T00:41:06.966Z,99176
2017-09-10T00:46:10.174Z,99178
2017-09-10T00:51:13.349Z,99174
2017-09-10T00:56:16.581Z,99184
2017-09-10T01:01:19.811Z,99183
2017-09-10T01:06:23.002Z,99184
2017-09-10T01:11:26.205Z,99183
2017-09-10T01:16:29.421Z,99189
2017-09-10T01:21:32.639Z,99190
2017-09-10T01:26:35.934Z,99193
2017-09-10T01:31:39.130Z,99198
2017-09-10T01:36:42.351Z,99201
2017-09-10T01:41:45.554Z,99197
2017-09-10T01:46:48.779Z,99198
2017-09-10T01:51:52.729Z,99208
2017-09-10T01:56:55.953Z,99208
2017-09-10T02:01:59.169Z,99205
2017-09-10T02:07:02.390Z,99201
2017-09-10T02:12:05.636Z,99211
2017-09-10T02:17:09.588Z,99208
2017-09-10T02:22:12.792Z,99204
2017-09-10T02:27:16.009Z,99214
2017-09-10T02:32:19.210Z,99237
2017-09-10T02:37:22.363Z,99246
2017-09-10T02:42:25.596Z,99237
2017-09-10T02:47:28.829Z,99247
2017-09-10T02:52:32.024Z,99243
2017-09-10T02:57:35.223Z,99259
2017-09-10T03:02:38.437Z,99268
2017-09-10T03:07:41.627Z,99270
2017-09-10T03:12:44.871Z,99268
2017-09-10T03:17:48.060Z,99275
2017-09-10T03:22:51.302Z,99289
2017-09-10T03:27:54.487Z,99283
2017-09-10T03:32:57.714Z,99288
2017-09-10T03:38:00.943Z,99293
2017-09-10T03:43:04.144Z,99294
2017-09-10T03:48:07.372Z,99315
2017-09-10T03:53:11.369Z,99322
2017-09-10T03:58:14.615Z,99325
2017-09-10T04:03:18.594Z,99326
2017-09-10T04:08:21.787Z,99335
2017-09-10T04:13:24.994Z,99331
2017-09-10T04:18:28.222Z,99342
2017-09-10T04:23:31.456Z,99347
2017-09-10T04:28:34.660Z,99341
2017-09-10T04:33:37.944Z,99358
2017-09-10T04:38:41.239Z,99358
2017-09-10T04:43:44.502Z,99361
2017-09-10T04:48:47.792Z,99373
2017-09-10T04:53:50.986Z,99378
2017-09-10T04:58:54.184Z,99389
2017-09-10T05:03:57.410Z,99380
2017-09-10T05:09:00.639Z,99381
2017-09-10T05:14:03.847Z,99395
2017-09-10T05:19:07.028Z,99418
2017-09-10T05:24:10.252Z,99415
2017-09-10T05:29:13.445Z,99424
2017-09-10T05:34:16.685Z,99425
2017-09-10T05:39:20.078Z,99430
2017-09-10T05:44:23.243Z,99430
2017-09-10T05:49:26.474Z,99441
2017-09-10T05:54:29.708Z,99445
2017-09-10T05:59:32.937Z,99453
2017-09-10T06:04:36.186Z,99455
2017-09-10T06:09:39.378Z,99454
2017-09-10T06:14:42.585Z,99448
2017-09-10T06:19:45.772Z,99450
2017-09-10T06:24:48.985Z,99463
2017-09-10T06:29:52.229Z,99465
2017-09-10T06:34:55.536Z,99459
2017-09-10T06:39:58.786Z,99469
2017-09-10T06:45:02.026Z,99467
2017-09-10T06:50:05.365Z,99459
2017-09-10T06:55:08.703Z,99455
2017-09-10T07:00:11.892Z,99464
2017-09-10T07:05:15.101Z,99464
2017-09-10T07:10:18.316Z,99462
2017-09-10T07:15:21.505Z,99466
2017-09-10T07:20:24.733Z,99469
2017-09-10T07:25:27.942Z,99478
2017-09-10T07:30:31.186Z,99480
2017-09-10T07:35:34.487Z,99481
2017-09-10T07:40:37.936Z,99474
2017-09-10T07:45:41.151Z,99479
2017-09-10T07:50:44.361Z,99477
2017-09-10T07:55:47.697Z,99487
2017-09-10T08:00:51.845Z,99510
2017-09-10T08:05:55.071Z,99523
2017-09-10T08:10:58.434Z,99506
2017-09-10T08:16:01.639Z,99511
2017-09-10T08:21:05.677Z,99528
2017-09-10T08:26:08.892Z,99533
2017-09-10T08:31:12.126Z,99552
2017-09-10T08:36:15.340Z,99560
2017-09-10T08:41:18.622Z,99568
2017-09-10T08:46:21.839Z,99553
2017-09-10T08:51:25.070Z,99553
2017-09-10T08:56:28.311Z,99547
2017-09-10T09:01:31.632Z,99540
2017-09-10T09:06:34.824Z,99540
2017-09-10T09:11:38.013Z,99541
2017-09-10T09:16:41.231Z,99535
2017-09-10T09:21:44.424Z,99536
2017-09-10T09:26:47.607Z,99524
2017-09-10T09:31:50.815Z,99527
2017-09-10T09:36:54.031Z,99530
2017-09-10T09:41:57.278Z,99526
2017-09-10T09:47:00.518Z,99520
2017-09-10T09:52:03.752Z,99524
2017-09-10T09:57:06.975Z,99535
2017-09-10T10:02:10.214Z,99541
2017-09-10T10:07:13.422Z,99539
2017-09-10T10:12:16.646Z,99539
2017-09-10T10:17:19.858Z,99533
2017-09-10T10:22:23.053Z,99548
2017-09-10T10:27:26.297Z,99565
2017-09-10T10:32:29.586Z,99547
2017-09-10T10:37:32.782Z,99556
2017-09-10T10:42:36.130Z,99561
2017-09-10T10:47:39.316Z,99551
2017-09-10T10:52:42.525Z,99555
2017-09-10T10:57:45.743Z,99551
2017-09-10T11:02:48.940Z,99536
2017-09-10T11:07:52.215Z,99541
2017-09-10T11:12:55.394Z,99539
2017-09-10T11:17:58.606Z,99544
2017-09-10T11:23:01.793Z,99533
2017-09-10T11:28:05.135Z,99533
2017-09-10T11:33:08.461Z,99522
2017-09-10T11:38:11.679Z,99514
2017-09-10T11:43:14.867Z,99508
2017-09-10T11:48:18.067Z,99502
2017-09-10T11:53:21.289Z,99502
2017-09-10T11:58:24.496Z,99494
2017-09-10T12:03:27.687Z,99494
2017-09-10T12:08:30.909Z,99488
2017-09-10T12:13:34.099Z,99490
2017-09-10T12:18:37.306Z,99483
2017-09-10T12:23:40.583Z,99479
2017-09-10T12:28:43.843Z,99485
2017-09-10T12:33:47.061Z,99478
2017-09-10T12:38:50.276Z,99474
2017-09-10T12:43:53.453Z,99475
2017-09-10T12:48:56.635Z,99474
2017-09-10T12:53:59.839Z,99477
2017-09-10T12:59:03.064Z,99468
2017-09-10T13:04:06.306Z,99485
2017-09-10T13:09:09.517Z,99472
2017-09-10T13:14:12.766Z,99481
2017-09-10T13:19:16.018Z,99483
2017-09-10T13:24:19.215Z,99483
2017-09-10T13:29:22.425Z,99476
2017-09-10T13:34:25.620Z,99480
2017-09-10T13:39:28.826Z,99484
2017-09-10T13:44:32.025Z,99479
2017-09-10T13:49:35.231Z,99477
2017-09-10T13:54:38.432Z,99467
2017-09-10T13:59:41.674Z,99456
2017-09-10T14:04:45.119Z,99473
2017-09-10T14:09:48.325Z,99469
2017-09-10T14:14:51.554Z,99471
2017-09-10T14:19:54.774Z,99475
2017-09-10T14:24:57.991Z,99472
2017-09-10T14:30:01.253Z,99485
2017-09-10T14:35:04.458Z,99485
2017-09-10T14:40:07.713Z,99469
2017-09-10T14:45:10.929Z,99484
2017-09-10T14:50:14.158Z,99475
2017-09-10T14:55:17.364Z,99469
2017-09-10T15:00:20.604Z,99462
2017-09-10T15:05:23.796Z,99460
2017-09-10T15:10:27.034Z,99451
2017-09-10T15:15:30.277Z,99465
2017-09-10T15:20:33.500Z,99467
2017-09-10T15:25:36.720Z,99466
2017-09-10T15:30:39.978Z,99454
2017-09-10T15:35:43.176Z,99454
2017-09-10T15:40:46.397Z,99456
2017-09-10T15:45:49.654Z,99456
2017-09-10T15:50:52.868Z,99459
2017-09-10T15:55:56.109Z,99447
2017-09-10T16:00:59.379Z,99453
2017-09-10T16:06:02.639Z,99436
2017-09-10T16:11:05.885Z,99431
2017-09-10T16:16:09.098Z,99443
2017-09-10T16:21:12.299Z,99435
2017-09-10T16:26:15.504Z,99425
2017-09-10T16:31:18.850Z,99424
2017-09-10T16:36:22.141Z,99420
2017-09-10T16:41:25.352Z,99408
2017-09-10T16:46:28.609Z,99409
2017-09-10T16:51:31.844Z,99406
2017-09-10T16:56:35.065Z,99400
2017-09-10T17:01:38.261Z,99397
2017-09-10T17:06:43.081Z,99381
2017-09-10T17:11:46.395Z,99370
2017-09-10T17:16:49.632Z,99379
2017-09-10T17:21:52.843Z,99376
2017-09-10T17:26:56.058Z,99371
2017-09-10T17:31:59.312Z,99368
2017-09-10T17:37:02.524Z,99362
2017-09-10T17:42:05.814Z,99354
2017-09-10T17:47:09.964Z,99345
2017-09-10T17:52:13.194Z,99356
2017-09-10T17:57:16.454Z,99350
2017-09-10T18:02:20.444Z,99352
2017-09-10T18:07:23.672Z,99346
2017-09-10T18:12:26.890Z,99343
2017-09-10T18:17:30.494Z,99349
2017-09-10T18:22:33.701Z,99363
2017-09-10T18:27:36.908Z,99360
2017-09-10T18:32:40.132Z,99369
2017-09-10T18:37:43.350Z,99377
2017-09-10T18:42:46.542Z,99366
2017-09-10T18:47:49.765Z,99363
2017-09-10T18:52:52.991Z,99357
2017-09-10T18:57:56.235Z,99376
2017-09-10T19:02:59.509Z,99365
2017-09-10T19:08:02.723Z,99357
2017-09-10T19:13:05.932Z,99358
2017-09-10T19:18:09.125Z,99354
2017-09-10T19:23:12.350Z,99343
2017-09-10T19:28:15.561Z,99348
2017-09-10T19:33:18.819Z,99348
2017-09-10T19:38:22.061Z,99343
2017-09-10T19:43:25.310Z,99335
2017-09-10T19:48:28.614Z,99334
2017-09-10T19:53:31.852Z,99326
2017-09-10T19:58:35.095Z,99333
2017-09-10T20:03:38.347Z,99325
2017-09-10T20:08:42.391Z,99326
2017-09-10T20:13:45.963Z,99329
2017-09-10T20:18:49.215Z,99328
2017-09-10T20:23:52.423Z,99326
2017-09-10T20:28:55.664Z,99316
2017-09-10T20:33:58.891Z,99315
2017-09-10T20:39:02.130Z,99322
2017-09-10T20:44:05.335Z,99321
2017-09-10T20:49:08.658Z,99330
2017-09-10T20:54:11.843Z,99317
2017-09-10T20:59:15.101Z,99304
2017-09-10T21:04:18.303Z,99306
2017-09-10T21:09:21.515Z,99296
2017-09-10T21:14:24.728Z,99287
2017-09-10T21:19:29.160Z,99288
2017-09-10T21:24:32.367Z,99291
2017-09-10T21:29:35.580Z,99287
2017-09-10T21:34:38.848Z,99292
2017-09-10T21:39:42.059Z,99289
2017-09-10T21:44:45.274Z,99292
2017-09-10T21:49:48.484Z,99285
2017-09-10T21:54:51.697Z,99280
2017-09-10T21:59:54.993Z,99274
2017-09-10T22:04:58.203Z,99272
2017-09-10T22:10:01.429Z,99275
2017-09-10T22:15:04.633Z,99264
2017-09-10T22:20:07.831Z,99248
2017-09-10T22:25:11.009Z,99242
2017-09-10T22:30:14.209Z,99238
2017-09-10T22:35:17.418Z,99235
2017-09-10T22:40:20.733Z,99229
2017-09-10T22:45:23.970Z,99200
2017-09-10T22:50:27.185Z,99204
2017-09-10T22:55:30.393Z,99190
2017-09-10T23:00:33.606Z,99190
2017-09-10T23:05:36.797Z,99176
2017-09-10T23:10:40.003Z,99170
2017-09-10T23:15:43.186Z,99164
2017-09-10T23:20:46.420Z,99157
2017-09-10T23:25:49.631Z,99133
2017-09-10T23:30:52.830Z,99136
2017-09-10T23:35:56.253Z,99138
2017-09-10T23:40:59.474Z,99133
2017-09-10T23:46:02.659Z,99130
2017-09-10T23:51:05.873Z,99132
2017-09-10T23:56:09.060Z,99125
